Time;durP1;ratioP1;P1;durP2;ratioP2;P2;SDS_P1;SDS_P2;PMS_P1;PMS_P2;Temp;Humidity;BMP_temperature;BMP_pressure;BME280_temperature;BME280_humidity;BME280_pressure;Samples;Min_cycle;Max_cycle;Signal;HPM_P1;HPM_P2
2021/06/10 00:00:14;;;;;;;6.33;4.92;;;15.80;99.90;;;;;;1952004;73;21041;-74
2021/06/10 00:02:40;;;;;;;8.53;5.70;;;15.80;99.90;;;;;;1951779;73;21029;-73
2021/06/10 00:05:06;;;;;;;8.98;5.55;;;15.80;99.90;;;;;;1951777;73;21130;-74
2021/06/10 00:07:32;;;;;;;9.50;6.12;;;15.80;99.90;;;;;;1950528;73;21126;-73
2021/06/10 00:09:58;;;;;;;12.88;5.95;;;15.80;99.90;;;;;;1950621;73;21158;-74
2021/06/10 00:12:24;;;;;;;7.70;5.70;;;15.70;99.90;;;;;;1950622;73;21065;-74
2021/06/10 00:14:50;;;;;;;6.30;5.40;;;15.70;99.90;;;;;;1951897;72;21143;-75
2021/06/10 00:17:17;;;;;;;7.20;5.47;;;15.70;99.90;;;;;;1950550;72;21069;-75
2021/06/10 00:19:43;;;;;;;11.22;6.17;;;15.70;99.90;;;;;;1952905;73;21177;-75
2021/06/10 00:22:09;;;;;;;13.30;5.67;;;15.70;99.90;;;;;;1955218;72;21429;-74
2021/06/10 00:24:35;;;;;;;9.33;5.35;;;15.60;99.90;;;;;;1950882;73;21425;-74
2021/06/10 00:27:01;;;;;;;8.15;5.78;;;15.60;99.90;;;;;;1955481;73;21569;-75
2021/06/10 00:29:27;;;;;;;7.65;5.50;;;15.60;99.90;;;;;;1950820;73;21473;-75
2021/06/10 00:31:53;;;;;;;7.33;5.25;;;15.60;99.90;;;;;;1950356;73;21541;-74
2021/06/10 00:34:19;;;;;;;6.33;5.35;;;15.50;99.90;;;;;;1950342;73;21594;-74
2021/06/10 00:36:45;;;;;;;9.20;5.65;;;15.50;99.90;;;;;;1950322;73;21473;-75
2021/06/10 00:39:12;;;;;;;7.00;5.35;;;15.60;99.90;;;;;;1950335;73;21461;-74
2021/06/10 00:41:38;;;;;;;10.13;6.12;;;15.60;99.90;;;;;;1950453;73;21099;-74
2021/06/10 00:44:04;;;;;;;8.80;6.37;;;15.50;99.90;;;;;;1950408;73;21114;-74
2021/06/10 00:46:30;;;;;;;11.10;6.00;;;15.50;99.90;;;;;;1950259;73;21134;-74
2021/06/10 00:48:56;;;;;;;9.53;6.47;;;15.50;99.90;;;;;;1950257;73;21025;-75
2021/06/10 00:51:22;;;;;;;10.30;6.17;;;15.50;99.90;;;;;;1950408;73;21150;-74
2021/06/10 00:53:49;;;;;;;11.90;6.47;;;15.50;99.90;;;;;;1950330;73;21187;-74
2021/06/10 00:56:15;;;;;;;8.85;5.75;;;15.50;99.90;;;;;;1950459;72;21072;-75
2021/06/10 00:58:41;;;;;;;9.95;6.08;;;15.30;99.90;;;;;;1950262;73;21223;-75
2021/06/10 01:01:08;;;;;;;7.75;5.60;;;15.40;99.90;;;;;;1950311;73;21081;-75
2021/06/10 01:03:34;;;;;;;8.60;5.75;;;15.40;99.90;;;;;;1950394;73;21033;-75
2021/06/10 01:06:00;;;;;;;8.43;5.70;;;15.40;99.90;;;;;;1950685;72;21118;-74
2021/06/10 01:08:26;;;;;;;8.23;5.90;;;15.40;99.90;;;;;;1950619;73;21057;-75
2021/06/10 01:10:53;;;;;;;10.55;6.28;;;15.30;99.90;;;;;;1950729;73;21068;-75
2021/06/10 01:13:19;;;;;;;7.83;5.75;;;15.30;99.90;;;;;;1950513;73;21488;-75
2021/06/10 01:15:45;;;;;;;7.90;6.08;;;15.30;99.90;;;;;;1950824;73;21057;-75
2021/06/10 01:18:11;;;;;;;10.90;6.22;;;15.20;99.90;;;;;;1950454;72;21130;-74
2021/06/10 01:20:37;;;;;;;12.45;6.40;;;15.20;99.90;;;;;;1950887;72;21167;-75
2021/06/10 01:23:03;;;;;;;8.68;6.35;;;15.20;99.90;;;;;;1950550;73;21060;-74
2021/06/10 01:25:29;;;;;;;10.05;6.90;;;15.20;99.90;;;;;;1950738;73;21029;-75
2021/06/10 01:27:55;;;;;;;9.38;6.50;;;15.20;99.90;;;;;;1950554;73;21150;-75
2021/06/10 01:30:22;;;;;;;12.58;7.40;;;15.20;99.90;;;;;;1950572;73;21057;-75
2021/06/10 01:32:48;;;;;;;19.42;8.58;;;15.20;99.90;;;;;;1950578;72;21108;-74
2021/06/10 01:35:14;;;;;;;11.53;6.95;;;15.20;99.90;;;;;;1950613;73;21061;-75
2021/06/10 01:37:40;;;;;;;8.28;6.62;;;15.20;99.90;;;;;;1950776;73;21130;-74
2021/06/10 01:40:06;;;;;;;10.28;6.87;;;15.20;99.90;;;;;;1950565;73;21123;-74
2021/06/10 01:42:32;;;;;;;17.35;6.50;;;15.30;99.90;;;;;;1950896;73;21029;-75
2021/06/10 01:44:58;;;;;;;8.73;6.37;;;15.30;99.90;;;;;;1952753;72;21102;-75
2021/06/10 01:47:24;;;;;;;8.65;6.58;;;15.20;99.90;;;;;;1953178;73;21056;-74
2021/06/10 01:49:51;;;;;;;9.90;6.90;;;15.20;99.90;;;;;;1951812;73;21032;-74
2021/06/10 01:52:17;;;;;;;9.05;6.80;;;15.10;99.90;;;;;;1953180;73;21002;-74
2021/06/10 01:54:43;;;;;;;11.05;6.67;;;15.00;99.90;;;;;;1953090;73;21025;-74
2021/06/10 01:57:09;;;;;;;10.90;6.47;;;15.00;99.90;;;;;;1953041;73;21104;-73
2021/06/10 01:59:35;;;;;;;8.63;6.42;;;15.00;99.90;;;;;;1953108;73;21061;-74
2021/06/10 02:02:01;;;;;;;7.45;5.62;;;14.90;99.90;;;;;;1953013;73;21044;-74
2021/06/10 02:04:27;;;;;;;7.33;5.75;;;14.90;99.90;;;;;;1953133;73;21029;-74
2021/06/10 02:06:53;;;;;;;7.37;5.65;;;14.90;99.90;;;;;;1952304;73;21069;-75
2021/06/10 02:09:19;;;;;;;10.78;6.58;;;14.80;99.90;;;;;;1950896;73;21069;-75
2021/06/10 02:11:47;;;;;;;9.85;6.50;;;14.80;99.90;;;;;;1950910;73;21032;-74
2021/06/10 02:14:13;;;;;;;8.70;6.40;;;14.80;99.90;;;;;;1950969;73;21122;-75
2021/06/10 02:16:39;;;;;;;11.95;6.62;;;14.70;99.90;;;;;;1950668;72;21057;-75
2021/06/10 02:19:05;;;;;;;8.03;5.55;;;14.70;99.90;;;;;;1950589;73;21060;-74
2021/06/10 02:21:32;;;;;;;10.55;6.55;;;14.70;99.90;;;;;;1950744;73;21021;-75
2021/06/10 02:23:59;;;;;;;8.38;6.65;;;14.70;99.90;;;;;;1950641;73;21562;-75
2021/06/10 02:26:25;;;;;;;9.28;6.80;;;14.70;99.90;;;;;;1950626;72;21526;-75
2021/06/10 02:28:51;;;;;;;11.05;7.37;;;14.70;99.90;;;;;;1951985;72;21069;-74
2021/06/10 02:31:17;;;;;;;13.08;7.15;;;14.70;99.90;;;;;;1950696;72;21118;-75
2021/06/10 02:33:43;;;;;;;13.80;8.25;;;14.70;99.90;;;;;;1950768;73;21138;-74
2021/06/10 02:36:09;;;;;;;20.80;9.50;;;14.70;99.90;;;;;;1950636;72;21145;-74
2021/06/10 02:38:35;;;;;;;18.23;8.60;;;14.60;99.90;;;;;;1950698;73;21131;-74
2021/06/10 02:41:01;;;;;;;13.98;8.20;;;14.60;99.90;;;;;;1950600;72;21069;-74
2021/06/10 02:43:28;;;;;;;12.37;8.05;;;14.60;99.90;;;;;;1950978;73;21227;-74
2021/06/10 02:45:54;;;;;;;18.02;8.08;;;14.50;99.90;;;;;;1950867;73;21154;-75
2021/06/10 02:48:22;;;;;;;12.15;7.90;;;14.60;99.90;;;;;;1950929;73;21092;-75
2021/06/10 02:50:48;;;;;;;12.60;8.43;;;14.60;99.90;;;;;;1951068;72;21766;-74
2021/06/10 02:53:16;;;;;;;14.33;8.15;;;14.60;99.90;;;;;;1951249;73;21024;-74
2021/06/10 02:55:43;;;;;;;14.40;9.20;;;14.50;99.90;;;;;;1950979;72;21438;-76
2021/06/10 02:58:09;;;;;;;17.00;9.25;;;14.50;99.90;;;;;;1950772;73;21516;-76
2021/06/10 03:00:35;;;;;;;13.48;9.55;;;14.40;99.90;;;;;;1950867;73;21460;-75
2021/06/10 03:03:01;;;;;;;14.73;10.70;;;14.40;99.90;;;;;;1951074;73;21370;-75
2021/06/10 03:05:27;;;;;;;19.23;10.15;;;14.40;99.90;;;;;;1950870;73;21549;-75
2021/06/10 03:07:53;;;;;;;19.77;11.38;;;14.50;99.90;;;;;;1950437;73;21452;-76
2021/06/10 03:10:19;;;;;;;12.90;9.43;;;14.50;99.90;;;;;;1950643;73;21550;-76
2021/06/10 03:12:45;;;;;;;15.28;9.68;;;14.50;99.90;;;;;;1950562;73;21457;-76
2021/06/10 03:15:12;;;;;;;18.52;10.23;;;14.50;99.90;;;;;;1950460;73;21492;-76
2021/06/10 03:17:38;;;;;;;15.25;9.78;;;14.60;99.90;;;;;;1950598;73;21485;-76
2021/06/10 03:20:06;;;;;;;16.25;9.93;;;14.60;99.90;;;;;;1950587;73;21432;-76
2021/06/10 03:22:32;;;;;;;15.20;9.85;;;14.50;99.90;;;;;;1950478;72;21069;-76
2021/06/10 03:24:58;;;;;;;21.60;10.28;;;14.60;99.90;;;;;;1950483;73;21426;-74
2021/06/10 03:27:24;;;;;;;17.07;9.95;;;14.60;99.90;;;;;;1950489;73;21033;-75
2021/06/10 03:29:50;;;;;;;16.10;9.78;;;14.60;99.90;;;;;;1950611;73;21070;-74
2021/06/10 03:32:16;;;;;;;16.40;10.15;;;14.60;99.90;;;;;;1950480;73;21073;-75
2021/06/10 03:34:42;;;;;;;15.28;9.90;;;14.60;99.90;;;;;;1950569;73;21060;-75
2021/06/10 03:37:08;;;;;;;16.07;10.38;;;14.60;99.90;;;;;;1950655;73;21173;-75
2021/06/10 03:39:35;;;;;;;17.02;11.00;;;14.60;99.90;;;;;;1950630;73;21134;-75
2021/06/10 03:42:01;;;;;;;14.03;10.05;;;14.70;99.90;;;;;;1950706;73;21018;-75
2021/06/10 03:44:27;;;;;;;15.00;10.68;;;14.70;99.90;;;;;;1950712;73;21150;-75
2021/06/10 03:46:53;;;;;;;15.43;10.00;;;14.70;99.90;;;;;;1950633;73;21130;-74
2021/06/10 03:49:19;;;;;;;15.23;10.32;;;14.80;99.90;;;;;;1950543;73;21065;-75
2021/06/10 03:51:45;;;;;;;16.60;10.08;;;14.70;99.90;;;;;;1950749;73;21130;-75
2021/06/10 03:54:11;;;;;;;13.98;9.70;;;14.80;99.90;;;;;;1940089;73;21013;-74
2021/06/10 03:56:37;;;;;;;15.55;9.90;;;14.80;99.90;;;;;;1950507;73;21053;-75
2021/06/10 03:59:04;;;;;;;15.40;10.32;;;14.80;99.90;;;;;;1950564;73;21057;-74
2021/06/10 04:01:30;;;;;;;12.53;9.68;;;14.80;99.90;;;;;;1950647;73;21207;-75
2021/06/10 04:03:56;;;;;;;14.98;9.38;;;14.70;99.90;;;;;;1950631;73;21111;-75
2021/06/10 04:06:29;;;;;;;13.80;9.95;;;14.80;99.90;;;;;;1950660;72;21075;-75
2021/06/10 04:08:50;;;;;;;13.55;9.55;;;14.80;99.90;;;;;;1950391;73;21132;-76
2021/06/10 04:11:16;;;;;;;12.95;9.70;;;14.90;99.90;;;;;;1950914;73;21060;-75
2021/06/10 04:13:42;;;;;;;16.02;9.98;;;14.80;99.90;;;;;;1950998;73;21065;-75
2021/06/10 04:16:08;;;;;;;16.32;10.08;;;14.80;99.90;;;;;;1951035;73;21076;-75
2021/06/10 04:18:35;;;;;;;17.98;10.55;;;14.80;99.90;;;;;;1951005;73;21056;-76
2021/06/10 04:21:02;;;;;;;16.23;9.75;;;14.80;99.90;;;;;;1950996;73;21123;-75
2021/06/10 04:23:28;;;;;;;14.47;9.30;;;14.80;99.90;;;;;;1951098;72;21130;-78
2021/06/10 04:25:54;;;;;;;13.13;9.13;;;14.80;99.90;;;;;;1950925;73;21082;-75
2021/06/10 04:28:20;;;;;;;13.03;8.48;;;14.80;99.90;;;;;;1950994;73;21130;-75
2021/06/10 04:30:46;;;;;;;20.02;9.35;;;14.80;99.90;;;;;;1950831;73;21492;-76
2021/06/10 04:33:13;;;;;;;10.70;8.40;;;14.80;99.90;;;;;;1952465;73;21093;-76
2021/06/10 04:35:39;;;;;;;14.60;9.70;;;14.90;99.90;;;;;;1954035;72;21052;-75
2021/06/10 04:38:06;;;;;;;13.78;8.95;;;14.90;99.90;;;;;;1954141;72;21009;-75
2021/06/10 04:40:32;;;;;;;13.00;8.23;;;14.80;99.90;;;;;;1950793;73;21142;-75
2021/06/10 04:42:58;;;;;;;12.82;7.87;;;14.90;99.90;;;;;;1950985;73;21073;-74
2021/06/10 04:45:24;;;;;;;12.82;7.83;;;15.00;99.90;;;;;;1952552;73;21129;-75
2021/06/10 04:47:51;;;;;;;15.20;8.48;;;15.20;99.90;;;;;;1953235;73;21049;-76
2021/06/10 04:50:17;;;;;;;13.03;8.68;;;15.20;99.90;;;;;;1953228;73;21040;-75
2021/06/10 04:52:43;;;;;;;16.97;7.95;;;15.20;99.90;;;;;;1953751;73;21036;-75
2021/06/10 04:55:09;;;;;;;11.88;7.90;;;15.20;99.90;;;;;;1952945;73;21156;-75
2021/06/10 04:57:35;;;;;;;13.50;8.48;;;15.30;99.90;;;;;;1952956;73;21018;-75
2021/06/10 05:00:02;;;;;;;9.10;7.03;;;15.40;99.90;;;;;;1951580;72;21141;-75
2021/06/10 05:02:28;;;;;;;13.83;7.80;;;15.50;99.90;;;;;;1950793;73;21034;-75
2021/06/10 05:04:55;;;;;;;14.83;7.37;;;15.60;99.90;;;;;;1950812;73;21122;-75
2021/06/10 05:07:21;;;;;;;11.15;7.15;;;15.80;99.90;;;;;;1950936;73;21069;-74
2021/06/10 05:09:47;;;;;;;14.00;7.30;;;15.80;99.90;;;;;;1950800;73;21057;-73
2021/06/10 05:12:14;;;;;;;9.95;6.45;;;15.70;99.90;;;;;;1950645;73;21056;-74
2021/06/10 05:14:40;;;;;;;12.13;6.90;;;15.80;99.90;;;;;;1950854;73;21065;-73
2021/06/10 05:17:06;;;;;;;11.53;6.40;;;15.80;99.90;;;;;;1950683;73;21064;-75
2021/06/10 05:19:32;;;;;;;11.70;6.35;;;15.70;99.90;;;;;;1950993;73;21056;-74
2021/06/10 05:21:58;;;;;;;7.67;6.12;;;15.90;99.90;;;;;;1950640;73;21056;-74
2021/06/10 05:24:27;;;;;;;8.28;6.55;;;16.10;99.90;;;;;;1950859;73;21069;-74
2021/06/10 05:26:52;;;;;;;10.78;6.00;;;16.40;99.90;;;;;;1950673;72;21225;-74
2021/06/10 05:29:18;;;;;;;9.50;5.80;;;16.50;99.90;;;;;;1950684;72;21497;-74
2021/06/10 05:31:44;;;;;;;9.38;5.58;;;16.70;99.90;;;;;;1951564;72;21549;-74
2021/06/10 05:34:11;;;;;;;12.03;6.35;;;16.70;99.90;;;;;;1952472;73;21436;-74
2021/06/10 05:36:37;;;;;;;11.18;7.92;;;16.60;99.90;;;;;;1950688;73;21453;-74
2021/06/10 05:39:03;;;;;;;8.65;6.08;;;16.50;99.90;;;;;;1950751;73;21436;-74
2021/06/10 05:41:29;;;;;;;6.00;5.03;;;16.70;99.90;;;;;;1950661;73;21499;-74
2021/06/10 05:43:55;;;;;;;5.80;4.70;;;17.10;99.90;;;;;;1950712;73;21506;-73
2021/06/10 05:46:22;;;;;;;8.33;5.47;;;17.40;99.90;;;;;;1950738;73;21133;-74
2021/06/10 05:48:48;;;;;;;9.75;5.65;;;18.20;99.90;;;;;;1950759;72;21130;-73
2021/06/10 05:51:14;;;;;;;7.22;5.37;;;18.60;99.90;;;;;;1950879;73;21057;-75
2021/06/10 05:53:40;;;;;;;6.92;4.80;;;18.40;99.90;;;;;;1950787;73;21142;-76
2021/06/10 05:56:07;;;;;;;7.83;4.67;;;18.50;99.90;;;;;;1950827;72;21033;-76
2021/06/10 05:58:33;;;;;;;5.37;4.60;;;19.40;99.90;;;;;;1951000;73;21130;-76
2021/06/10 06:00:59;;;;;;;8.33;4.50;;;20.00;99.90;;;;;;1950870;73;21072;-77
2021/06/10 06:03:30;;;;;;;5.75;3.90;;;20.30;99.90;;;;;;1950870;73;21073;-76
2021/06/10 06:05:53;;;;;;;5.30;4.00;;;20.80;99.90;;;;;;1949957;73;21068;-76
2021/06/10 06:08:19;;;;;;;5.90;4.20;;;20.50;99.90;;;;;;1951031;73;21185;-76
2021/06/10 06:10:48;;;;;;;4.87;4.00;;;20.40;99.90;;;;;;1951062;73;21064;-76
2021/06/10 06:13:15;;;;;;;3.70;3.30;;;20.00;99.90;;;;;;1950784;73;21138;-77
2021/06/10 06:15:41;;;;;;;5.05;3.67;;;19.90;99.90;;;;;;1951001;72;21508;-77
2021/06/10 06:18:07;;;;;;;4.80;3.58;;;20.90;99.90;;;;;;1950787;73;21503;-77
2021/06/10 06:20:33;;;;;;;4.25;3.85;;;20.60;99.90;;;;;;1950886;73;21510;-76
2021/06/10 06:22:59;;;;;;;4.30;3.72;;;20.50;99.90;;;;;;1951145;73;21492;-77
2021/06/10 06:25:25;;;;;;;10.10;4.05;;;21.40;99.90;;;;;;1951163;73;21146;-77
2021/06/10 06:27:52;;;;;;;5.83;3.72;;;21.60;99.90;;;;;;1951061;73;21021;-77
2021/06/10 06:30:18;;;;;;;9.03;3.30;;;21.10;99.90;;;;;;1950955;73;21450;-78
2021/06/10 06:32:44;;;;;;;3.72;3.27;;;21.20;99.90;;;;;;1950836;73;21189;-76
2021/06/10 06:35:10;;;;;;;8.68;3.58;;;20.70;99.90;;;;;;1950824;73;21179;-76
2021/06/10 06:37:36;;;;;;;6.78;4.03;;;20.60;99.90;;;;;;1950936;73;21057;-75
2021/06/10 06:40:02;;;;;;;7.37;3.35;;;20.50;99.90;;;;;;1950980;73;21049;-75
2021/06/10 06:42:28;;;;;;;4.45;3.50;;;20.90;99.90;;;;;;1950892;72;21118;-75
2021/06/10 06:44:55;;;;;;;5.55;3.37;;;20.90;99.90;;;;;;1950883;73;21119;-75
2021/06/10 06:47:21;;;;;;;5.45;3.67;;;21.50;99.90;;;;;;1950855;72;21099;-75
2021/06/10 06:49:47;;;;;;;4.90;3.52;;;22.20;99.90;;;;;;1950878;73;21054;-74
2021/06/10 06:52:13;;;;;;;3.87;3.47;;;22.20;99.90;;;;;;1950830;73;21056;-75
2021/06/10 06:54:39;;;;;;;6.65;3.05;;;22.90;99.90;;;;;;1950880;73;21060;-76
2021/06/10 06:57:05;;;;;;;5.08;3.37;;;23.00;99.90;;;;;;1950812;73;21496;-75
2021/06/10 06:59:31;;;;;;;5.20;3.62;;;23.90;99.90;;;;;;1950880;73;21554;-75
2021/06/10 07:01:57;;;;;;;6.70;3.42;;;23.30;99.90;;;;;;1950780;73;21131;-75
2021/06/10 07:04:25;;;;;;;6.97;3.10;;;22.40;99.90;;;;;;1950998;73;21025;-75
2021/06/10 07:06:51;;;;;;;4.60;3.20;;;22.40;99.90;;;;;;1950812;72;21519;-74
2021/06/10 07:09:17;;;;;;;6.08;3.27;;;21.70;99.90;;;;;;1950863;73;21476;-74
2021/06/10 07:11:43;;;;;;;5.08;3.20;;;22.00;99.90;;;;;;1950829;73;21585;-74
2021/06/10 07:14:09;;;;;;;6.70;3.15;;;22.40;99.90;;;;;;1950754;73;21566;-74
2021/06/10 07:16:36;;;;;;;11.70;3.42;;;22.60;99.90;;;;;;1950834;73;21034;-75
2021/06/10 07:19:02;;;;;;;3.92;3.10;;;22.50;99.90;;;;;;1950880;73;21199;-74
2021/06/10 07:21:28;;;;;;;11.83;3.47;;;22.30;99.90;;;;;;1950949;73;21052;-74
2021/06/10 07:23:54;;;;;;;4.25;3.05;;;21.60;99.90;;;;;;1950927;73;21053;-74
2021/06/10 07:26:20;;;;;;;4.40;2.92;;;22.10;99.90;;;;;;1950952;73;21068;-74
2021/06/10 07:28:46;;;;;;;4.33;3.33;;;22.80;99.90;;;;;;1950814;73;21557;-74
2021/06/10 07:31:12;;;;;;;4.42;3.40;;;23.00;99.90;;;;;;1950966;73;21472;-74
2021/06/10 07:33:39;;;;;;;3.47;2.98;;;22.40;99.90;;;;;;1950795;73;21036;-77
2021/06/10 07:36:05;;;;;;;4.97;3.60;;;21.90;99.90;;;;;;1950977;73;21052;-77
2021/06/10 07:38:31;;;;;;;6.15;3.52;;;21.80;99.90;;;;;;1950907;73;21149;-79
2021/06/10 07:40:57;;;;;;;4.70;3.45;;;22.40;99.90;;;;;;1952467;73;21111;-77
2021/06/10 07:43:23;;;;;;;8.33;3.67;;;22.90;99.90;;;;;;1954301;72;21076;-78
2021/06/10 07:45:49;;;;;;;8.53;3.60;;;22.50;99.90;;;;;;1953122;73;21052;-78
2021/06/10 07:48:15;;;;;;;4.05;3.33;;;22.30;99.90;;;;;;1952857;73;21130;-78
2021/06/10 07:50:41;;;;;;;6.17;3.27;;;22.40;99.90;;;;;;1950789;73;21021;-78
2021/06/10 07:53:09;;;;;;;5.10;3.52;;;22.40;99.90;;;;;;1950789;73;21021;-78
2021/06/10 07:55:35;;;;;;;3.45;2.67;;;23.50;99.90;;;;;;1950863;72;21034;-78
2021/06/10 07:58:01;;;;;;;3.58;3.00;;;23.80;99.90;;;;;;1950789;73;21096;-78
2021/06/10 08:00:28;;;;;;;9.18;3.25;;;24.40;99.90;;;;;;1950911;73;21126;-77
2021/06/10 08:02:58;;;;;;;5.60;3.00;;;24.40;99.90;;;;;;1950959;73;21065;-78
2021/06/10 08:05:22;;;;;;;11.10;3.17;;;24.40;99.90;;;;;;1952859;73;21109;-79
2021/06/10 08:07:48;;;;;;;5.67;3.02;;;23.40;99.90;;;;;;1950927;73;21030;-78
2021/06/10 08:10:14;;;;;;;10.72;2.87;;;23.70;99.90;;;;;;1950932;73;21068;-78
2021/06/10 08:12:40;;;;;;;5.87;3.33;;;23.80;99.90;;;;;;1950710;73;21095;-77
2021/06/10 08:15:06;;;;;;;10.85;3.20;;;23.40;99.90;;;;;;1951380;73;21123;-78
2021/06/10 08:17:35;;;;;;;4.85;2.92;;;23.40;99.90;;;;;;1950972;73;21029;-78
2021/06/10 08:20:00;;;;;;;7.33;2.87;;;23.40;99.90;;;;;;1952080;72;21931;-78
2021/06/10 08:22:26;;;;;;;3.72;2.83;;;23.90;99.90;;;;;;1951968;72;21561;-78
2021/06/10 08:24:52;;;;;;;6.33;3.00;;;23.70;99.90;;;;;;1951123;73;21457;-78
2021/06/10 08:27:18;;;;;;;9.63;2.92;;;24.40;99.90;;;;;;1954532;73;21528;-80
2021/06/10 08:29:46;;;;;;;4.28;2.40;;;24.90;99.90;;;;;;1950956;73;21056;-81
2021/06/10 08:32:12;;;;;;;4.75;3.10;;;25.20;99.90;;;;;;1950899;73;21057;-74
2021/06/10 08:34:38;;;;;;;4.70;3.25;;;25.00;99.90;;;;;;1950943;73;21069;-76
2021/06/10 08:37:04;;;;;;;3.83;3.05;;;25.00;99.90;;;;;;1950917;73;21045;-76
2021/06/10 08:39:30;;;;;;;6.05;3.30;;;24.40;99.90;;;;;;1951044;73;21115;-75
2021/06/10 08:41:56;;;;;;;4.83;3.10;;;24.50;99.90;;;;;;1950918;72;21131;-74
2021/06/10 08:44:23;;;;;;;4.08;3.08;;;24.70;99.90;;;;;;1951016;73;20998;-75
2021/06/10 08:46:49;;;;;;;8.63;3.17;;;24.40;99.90;;;;;;1950834;73;21041;-75
2021/06/10 08:49:15;;;;;;;3.47;3.08;;;24.00;99.90;;;;;;1953573;73;21029;-76
2021/06/10 08:51:42;;;;;;;5.35;2.98;;;24.40;99.90;;;;;;1953972;72;21228;-76
2021/06/10 08:54:08;;;;;;;4.72;3.10;;;25.30;99.90;;;;;;1950944;72;21061;-75
2021/06/10 08:56:34;;;;;;;5.60;3.08;;;25.90;99.90;;;;;;1951001;73;21026;-76
2021/06/10 08:59:01;;;;;;;4.80;3.22;;;25.30;99.90;;;;;;1950943;73;21577;-73
2021/06/10 09:01:29;;;;;;;9.73;3.00;;;26.20;99.90;;;;;;1950698;73;21052;-81
2021/06/10 09:03:54;;;;;;;6.70;3.10;;;26.80;99.90;;;;;;1950643;72;21450;-79
2021/06/10 09:06:21;;;;;;;4.92;3.37;;;26.00;99.90;;;;;;1950684;73;21548;-80
2021/06/10 09:08:47;;;;;;;7.03;3.12;;;25.60;99.90;;;;;;1950968;72;21453;-77
2021/06/10 09:11:13;;;;;;;6.30;3.20;;;25.40;99.90;;;;;;1950801;73;21118;-78
2021/06/10 09:13:39;;;;;;;3.65;2.83;;;25.30;99.90;;;;;;1951008;73;21131;-78
2021/06/10 09:16:05;;;;;;;4.25;2.95;;;25.20;99.90;;;;;;1950690;72;21057;-77
2021/06/10 09:18:31;;;;;;;4.85;3.00;;;25.60;99.90;;;;;;1951001;73;21064;-79
2021/06/10 09:20:57;;;;;;;3.22;2.80;;;25.30;99.90;;;;;;1951103;73;21060;-78
2021/06/10 09:23:26;;;;;;;4.08;2.92;;;25.60;99.90;;;;;;1951034;73;21022;-78
2021/06/10 09:25:51;;;;;;;8.45;3.30;;;25.60;99.90;;;;;;1950689;73;21068;-78
2021/06/10 09:28:20;;;;;;;3.35;3.00;;;25.30;99.90;;;;;;1950965;73;21130;-77
2021/06/10 09:30:51;;;;;;;8.95;3.58;;;25.50;99.90;;;;;;1951203;73;21057;-77
2021/06/10 09:33:19;;;;;;;5.25;2.98;;;25.30;99.90;;;;;;1951049;73;21141;-78
2021/06/10 09:35:44;;;;;;;5.65;3.10;;;25.30;99.90;;;;;;1950727;73;21037;-78
2021/06/10 09:38:31;;;;;;;8.70;3.80;;;24.80;99.90;;;;;;1951126;73;21111;-78
2021/06/10 09:40:38;;;;;;;4.50;3.20;;;25.20;99.90;;;;;;1944875;73;21056;-78
2021/06/10 09:43:04;;;;;;;5.37;3.08;;;25.40;99.90;;;;;;1951334;73;21056;-78
2021/06/10 09:45:31;;;;;;;4.33;3.67;;;25.70;99.90;;;;;;1951257;73;21065;-77
2021/06/10 09:47:59;;;;;;;3.25;2.90;;;25.70;99.90;;;;;;1951436;73;21045;-78
2021/06/10 09:50:28;;;;;;;7.72;3.33;;;26.40;99.90;;;;;;1951299;73;21126;-78
2021/06/10 09:52:54;;;;;;;4.08;3.00;;;26.70;99.90;;;;;;1922561;74;21163;-78
2021/06/10 09:55:20;;;;;;;3.85;3.35;;;27.00;99.90;;;;;;1924991;74;21076;-77
2021/06/10 09:57:46;;;;;;;6.87;3.33;;;26.70;99.90;;;;;;1925199;74;21033;-79
2021/06/10 10:00:16;;;;;;;6.03;3.67;;;26.40;99.90;;;;;;1924841;74;21122;-77
2021/06/10 10:02:40;;;;;;;5.00;3.17;;;25.60;99.90;;;;;;1923586;74;21490;-78
2021/06/10 10:05:06;;;;;;;5.25;3.30;;;25.50;99.90;;;;;;1924765;74;21060;-77
2021/06/10 10:07:32;;;;;;;5.40;3.58;;;25.60;99.90;;;;;;1924951;74;21139;-78
2021/06/10 10:09:58;;;;;;;8.28;3.45;;;25.30;99.90;;;;;;1925152;74;21112;-77
2021/06/10 10:12:25;;;;;;;4.80;3.58;;;25.40;99.90;;;;;;1926672;74;21045;-79
2021/06/10 10:14:51;;;;;;;7.08;4.12;;;25.30;99.90;;;;;;1926668;74;21077;-76
2021/06/10 10:17:17;;;;;;;8.15;3.92;;;25.90;99.90;;;;;;1923898;74;21082;-77
2021/06/10 10:19:46;;;;;;;6.47;3.87;;;26.00;99.90;;;;;;1924730;74;21033;-77
2021/06/10 10:22:13;;;;;;;5.70;3.33;;;26.40;99.90;;;;;;1922063;74;21507;-77
2021/06/10 10:24:39;;;;;;;6.60;4.50;;;27.00;99.90;;;;;;1925065;74;21090;-77
2021/06/10 10:27:09;;;;;;;8.43;4.40;;;26.90;99.90;;;;;;1924814;74;21073;-74
2021/06/10 10:29:33;;;;;;;5.80;4.12;;;26.70;99.90;;;;;;1924536;74;21093;-80
2021/06/10 10:31:59;;;;;;;5.22;4.20;;;26.70;99.90;;;;;;1924927;74;21122;-77
2021/06/10 10:34:27;;;;;;;6.08;4.40;;;26.60;99.90;;;;;;1925024;74;21076;-77
2021/06/10 10:36:54;;;;;;;6.75;4.92;;;26.70;99.90;;;;;;1924779;74;21131;-78
2021/06/10 10:39:20;;;;;;;7.10;4.78;;;26.40;99.90;;;;;;1924847;74;21199;-77
2021/06/10 10:41:51;;;;;;;8.65;4.70;;;26.40;99.90;;;;;;1924696;74;20998;-78
2021/06/10 10:44:27;;;;;;;5.00;3.90;;;26.50;99.90;;;;;;1924470;74;21090;-79
2021/06/10 10:46:50;;;;;;;5.47;3.90;;;26.80;99.90;;;;;;1923208;74;21068;-78
2021/06/10 10:49:16;;;;;;;6.83;4.22;;;27.90;99.90;;;;;;1924720;74;21068;-78
2021/06/10 10:51:43;;;;;;;5.92;4.20;;;28.00;99.90;;;;;;1924736;74;21131;-79
2021/06/10 10:54:11;;;;;;;6.62;4.53;;;28.00;99.90;;;;;;1924763;74;21139;-78
2021/06/10 10:56:36;;;;;;;6.05;4.08;;;27.70;99.90;;;;;;1924603;72;21505;-78
2021/06/10 10:59:03;;;;;;;6.05;4.47;;;27.50;99.90;;;;;;1924558;74;21497;-79
2021/06/10 11:01:29;;;;;;;5.87;3.98;;;26.60;99.90;;;;;;1924547;74;21406;-78
2021/06/10 11:03:56;;;;;;;5.87;3.92;;;26.50;99.90;;;;;;1924558;74;21045;-78
2021/06/10 11:06:22;;;;;;;4.95;4.05;;;26.50;99.90;;;;;;1924693;74;21065;-78
2021/06/10 11:08:52;;;;;;;5.45;3.83;;;26.80;99.90;;;;;;1924584;74;21579;-79
2021/06/10 11:11:16;;;;;;;5.25;3.58;;;26.90;99.90;;;;;;1923127;74;21094;-78
2021/06/10 11:13:42;;;;;;;9.48;3.83;;;26.90;99.90;;;;;;1924529;74;21073;-78
2021/06/10 11:16:08;;;;;;;7.97;4.12;;;26.80;99.90;;;;;;1924482;74;21108;-79
2021/06/10 11:18:34;;;;;;;5.55;3.47;;;26.60;99.90;;;;;;1924606;74;21105;-79
2021/06/10 11:21:00;;;;;;;9.83;3.30;;;26.70;99.90;;;;;;1924528;74;21065;-78
2021/06/10 11:23:28;;;;;;;7.55;3.20;;;26.80;99.90;;;;;;1924593;74;21038;-80
2021/06/10 11:25:54;;;;;;;7.72;4.50;;;27.00;99.90;;;;;;1924426;74;21075;-81
2021/06/10 11:28:20;;;;;;;6.03;4.28;;;26.80;99.90;;;;;;1924678;74;21136;-81
2021/06/10 11:30:46;;;;;;;6.22;4.03;;;26.00;99.90;;;;;;1924805;74;21070;-80
2021/06/10 11:33:12;;;;;;;6.58;4.42;;;26.00;99.90;;;;;;1924437;74;21587;-77
2021/06/10 11:35:38;;;;;;;4.92;3.92;;;26.90;99.90;;;;;;1924481;74;21076;-77
2021/06/10 11:38:04;;;;;;;8.20;4.42;;;27.10;99.90;;;;;;1924747;74;21467;-78
2021/06/10 11:40:31;;;;;;;4.87;4.15;;;27.50;99.90;;;;;;1924531;74;21492;-78
2021/06/10 11:42:57;;;;;;;5.20;3.47;;;27.90;99.90;;;;;;1924686;74;21477;-78
2021/06/10 11:45:26;;;;;;;6.53;3.98;;;27.70;99.90;;;;;;1924596;74;21150;-80
2021/06/10 11:47:51;;;;;;;5.42;3.42;;;28.30;99.90;;;;;;1924455;74;21081;-81
2021/06/10 11:50:17;;;;;;;7.53;3.85;;;28.80;99.90;;;;;;1924603;74;21150;-79
2021/06/10 11:52:43;;;;;;;4.97;3.58;;;28.60;99.90;;;;;;1924835;74;21076;-79
2021/06/10 11:55:09;;;;;;;5.87;4.20;;;29.00;99.90;;;;;;1924539;74;21034;-79
2021/06/10 11:57:35;;;;;;;8.58;3.72;;;29.20;99.90;;;;;;1924731;74;21150;-79
2021/06/10 12:00:01;;;;;;;11.43;4.33;;;29.30;99.90;;;;;;1924605;74;21480;-79
2021/06/10 12:02:27;;;;;;;5.60;3.67;;;28.90;99.90;;;;;;1924623;74;21509;-79
2021/06/10 12:04:53;;;;;;;4.75;3.80;;;28.70;99.90;;;;;;1924479;74;21418;-79
2021/06/10 12:07:20;;;;;;;11.05;3.87;;;28.30;99.90;;;;;;1924849;74;21485;-80
2021/06/10 12:09:46;;;;;;;7.58;3.80;;;28.10;99.90;;;;;;1924561;74;21120;-78
2021/06/10 12:12:12;;;;;;;4.80;3.40;;;28.30;99.90;;;;;;1924701;74;21142;-79
2021/06/10 12:14:38;;;;;;;5.90;3.85;;;28.50;99.90;;;;;;1924632;74;21190;-78
2021/06/10 12:17:06;;;;;;;7.37;3.75;;;28.60;99.90;;;;;;1924666;74;21037;-79
2021/06/10 12:19:33;;;;;;;4.10;3.52;;;28.40;99.90;;;;;;1924563;74;21068;-78
2021/06/10 12:21:59;;;;;;;4.35;3.60;;;28.00;99.90;;;;;;1925299;74;21118;-78
2021/06/10 12:24:25;;;;;;;3.77;3.42;;;27.90;99.90;;;;;;1928462;74;21041;-79
2021/06/10 12:26:51;;;;;;;9.60;4.03;;;27.80;99.90;;;;;;1926534;74;21446;-80
2021/06/10 12:29:17;;;;;;;4.45;3.30;;;27.70;99.90;;;;;;1924623;74;21045;-80
2021/06/10 12:31:43;;;;;;;6.97;4.33;;;27.50;99.90;;;;;;1924747;74;21139;-80
2021/06/10 12:34:10;;;;;;;19.27;3.62;;;27.50;99.90;;;;;;1924876;74;21041;-79
2021/06/10 12:36:36;;;;;;;6.87;3.60;;;27.90;99.90;;;;;;1924771;74;21074;-79